Time;durP1;ratioP1;P1;durP2;ratioP2;P2;SDS_P1;SDS_P2;PMS_P1;PMS_P2;Temp;Humidity;BMP_temperature;BMP_pressure;BME280_temperature;BME280_humidity;BME280_pressure;Samples;Min_cycle;Max_cycle;Signal;HPM_P1;HPM_P2
2023/09/05 00:00:10;;;;;;;1.88;1.70;;;20.90;69.70;;;;;;5047484;28;21519;-80
2023/09/05 00:02:40;;;;;;;2.08;1.67;;;20.90;69.90;;;;;;5052447;28;20024;-80
2023/09/05 00:05:07;;;;;;;3.03;2.05;;;20.80;70.10;;;;;;5045119;28;20083;-80
2023/09/05 00:07:37;;;;;;;2.58;1.75;;;20.80;70.40;;;;;;5048931;28;20025;-79
2023/09/05 00:10:13;;;;;;;2.15;1.85;;;20.70;70.60;;;;;;5028606;28;20028;-79
2023/09/05 00:12:40;;;;;;;2.58;2.15;;;20.60;70.70;;;;;;5046886;28;20032;-80
2023/09/05 00:15:10;;;;;;;3.58;1.92;;;20.60;70.60;;;;;;5046112;28;20025;-80
2023/09/05 00:17:37;;;;;;;2.58;1.90;;;20.60;70.60;;;;;;5047569;28;20051;-79
2023/09/05 00:20:04;;;;;;;3.30;2.10;;;20.50;70.60;;;;;;5035524;28;20482;-80
2023/09/05 00:22:30;;;;;;;2.53;1.80;;;20.50;70.50;;;;;;5047664;28;20025;-80
2023/09/05 00:24:55;;;;;;;3.08;1.80;;;20.50;70.60;;;;;;5046788;28;20021;-80
2023/09/05 00:27:21;;;;;;;2.40;1.63;;;20.50;70.70;;;;;;5053629;28;20390;-80
2023/09/05 00:29:47;;;;;;;2.30;1.90;;;20.40;70.80;;;;;;5047920;28;20067;-80
2023/09/05 00:32:13;;;;;;;2.67;2.35;;;20.30;71.00;;;;;;5038177;28;20130;-80
2023/09/05 00:34:39;;;;;;;2.22;2.03;;;20.30;71.10;;;;;;5048042;28;20480;-80
2023/09/05 00:37:07;;;;;;;3.33;2.22;;;20.20;71.30;;;;;;5052521;28;20094;-80
2023/09/05 00:39:33;;;;;;;2.90;2.30;;;20.20;71.40;;;;;;5045969;28;20026;-80
2023/09/05 00:42:03;;;;;;;3.22;2.38;;;20.10;71.50;;;;;;5046963;28;20017;-80
2023/09/05 00:44:29;;;;;;;2.90;2.50;;;20.00;71.70;;;;;;5030106;28;20113;-80
2023/09/05 00:46:58;;;;;;;2.95;2.50;;;19.90;71.90;;;;;;5044123;28;20129;-80
2023/09/05 00:49:28;;;;;;;3.30;2.63;;;19.90;72.10;;;;;;5030598;28;20547;-79
2023/09/05 00:52:00;;;;;;;2.85;2.33;;;19.90;72.10;;;;;;5034348;28;20390;-80
2023/09/05 00:54:26;;;;;;;3.58;2.60;;;19.90;72.10;;;;;;5050292;28;20578;-80
2023/09/05 00:56:53;;;;;;;4.05;2.55;;;19.90;72.10;;;;;;5050283;28;20115;-80
2023/09/05 00:59:19;;;;;;;3.42;2.70;;;19.80;72.20;;;;;;5040927;28;20062;-80
2023/09/05 01:01:45;;;;;;;3.50;2.20;;;19.80;72.30;;;;;;5048223;28;20246;-80
2023/09/05 01:04:11;;;;;;;4.50;2.53;;;19.80;72.30;;;;;;5051879;28;20438;-80
2023/09/05 01:06:52;;;;;;;2.60;2.40;;;19.70;72.20;;;;;;5049770;28;20017;-80
2023/09/05 01:09:23;;;;;;;3.53;2.10;;;19.70;72.30;;;;;;5038944;28;20480;-80
2023/09/05 01:11:49;;;;;;;3.50;2.70;;;19.70;72.30;;;;;;5050248;28;20078;-80
2023/09/05 01:14:16;;;;;;;4.45;2.40;;;19.60;72.50;;;;;;5049754;28;20048;-80
2023/09/05 01:16:44;;;;;;;3.85;2.83;;;19.60;72.60;;;;;;5051667;28;20029;-80
2023/09/05 01:19:12;;;;;;;3.95;2.80;;;19.50;72.70;;;;;;5052170;28;20024;-79
2023/09/05 01:21:44;;;;;;;4.28;2.85;;;19.50;72.80;;;;;;5059134;28;20025;-80
2023/09/05 01:24:20;;;;;;;3.10;2.78;;;19.50;72.90;;;;;;5058725;28;20036;-80
2023/09/05 01:26:51;;;;;;;4.80;3.40;;;19.40;73.10;;;;;;5032984;28;20456;-79
2023/09/05 01:29:22;;;;;;;3.83;3.20;;;19.30;73.40;;;;;;5057165;28;20025;-80
2023/09/05 01:31:48;;;;;;;3.80;3.20;;;19.20;73.80;;;;;;5039400;28;20018;-80
2023/09/05 01:34:14;;;;;;;3.83;3.10;;;19.20;73.90;;;;;;5063514;28;20040;-80
2023/09/05 01:36:39;;;;;;;3.55;3.13;;;19.10;73.90;;;;;;5050012;28;20098;-80
2023/09/05 01:39:05;;;;;;;5.25;3.30;;;19.10;74.10;;;;;;5038784;28;20028;-80
2023/09/05 01:41:31;;;;;;;4.90;3.30;;;19.00;74.40;;;;;;5049429;28;20029;-79
2023/09/05 01:43:56;;;;;;;4.63;3.40;;;19.00;75.00;;;;;;5051228;28;20100;-80
2023/09/05 01:46:22;;;;;;;3.90;3.00;;;18.90;75.30;;;;;;5046953;28;20029;-80
2023/09/05 01:48:47;;;;;;;5.30;3.08;;;18.90;75.10;;;;;;5054092;28;20029;-80
2023/09/05 01:51:13;;;;;;;3.60;2.70;;;18.90;75.10;;;;;;5048177;28;20103;-80
2023/09/05 01:53:38;;;;;;;3.55;2.80;;;19.00;75.10;;;;;;5049880;28;20474;-80
2023/09/05 01:56:04;;;;;;;2.97;2.53;;;19.00;75.00;;;;;;5031487;28;20137;-80
2023/09/05 01:58:30;;;;;;;3.10;2.75;;;19.00;75.50;;;;;;5050949;28;20020;-80
2023/09/05 02:00:56;;;;;;;3.03;2.58;;;19.00;74.70;;;;;;5035655;28;20041;-80
2023/09/05 02:03:21;;;;;;;4.40;3.00;;;19.00;74.60;;;;;;5049955;28;20024;-80
2023/09/05 02:05:47;;;;;;;3.45;2.83;;;19.00;74.70;;;;;;5050697;28;20031;-80
2023/09/05 02:08:12;;;;;;;3.75;2.58;;;19.00;74.70;;;;;;5036226;28;20021;-80
2023/09/05 02:10:38;;;;;;;2.90;2.45;;;19.10;74.60;;;;;;5053410;28;20032;-80
2023/09/05 02:13:03;;;;;;;3.15;2.15;;;19.10;74.50;;;;;;5050691;28;20052;-80
2023/09/05 02:15:29;;;;;;;2.80;2.40;;;19.10;74.40;;;;;;5049855;28;20048;-80
2023/09/05 02:17:55;;;;;;;3.92;2.80;;;19.10;74.30;;;;;;5049862;28;20024;-80
2023/09/05 02:20:22;;;;;;;4.13;2.75;;;19.10;74.30;;;;;;5033114;28;20040;-80
2023/09/05 02:22:48;;;;;;;3.15;2.30;;;19.10;74.60;;;;;;5047189;28;20056;-80
2023/09/05 02:25:13;;;;;;;2.65;2.20;;;19.00;74.50;;;;;;5048704;28;20053;-80
2023/09/05 02:27:39;;;;;;;3.20;2.50;;;19.00;74.60;;;;;;5048449;28;20115;-80
2023/09/05 02:30:07;;;;;;;3.78;2.63;;;19.00;74.60;;;;;;5053107;28;20021;-80
2023/09/05 02:32:33;;;;;;;3.65;2.50;;;19.00;74.80;;;;;;5055016;28;20017;-80
2023/09/05 02:34:59;;;;;;;2.92;2.50;;;19.00;74.80;;;;;;5058174;28;20021;-80
2023/09/05 02:37:25;;;;;;;4.30;2.70;;;19.00;74.90;;;;;;5048596;28;20025;-80
2023/09/05 02:39:50;;;;;;;2.83;2.20;;;19.00;74.80;;;;;;5028986;28;20112;-80
2023/09/05 02:42:16;;;;;;;3.83;2.60;;;19.00;74.50;;;;;;5031782;28;20067;-81
2023/09/05 02:44:41;;;;;;;4.60;2.40;;;19.00;74.40;;;;;;5053491;28;20025;-80
2023/09/05 02:47:07;;;;;;;2.65;2.35;;;19.10;74.20;;;;;;5047903;28;20033;-81
2023/09/05 02:49:33;;;;;;;3.22;2.35;;;19.10;74.00;;;;;;5039635;28;20071;-80
2023/09/05 02:51:58;;;;;;;3.58;2.55;;;19.10;74.00;;;;;;5028281;28;20060;-80
2023/09/05 02:54:24;;;;;;;3.08;2.38;;;19.20;74.00;;;;;;5030346;28;20216;-80
2023/09/05 02:56:50;;;;;;;2.60;2.25;;;19.20;74.00;;;;;;5045247;28;20024;-80
2023/09/05 02:59:16;;;;;;;3.85;2.17;;;19.20;74.00;;;;;;5035649;28;20028;-80
2023/09/05 03:01:41;;;;;;;2.83;2.40;;;19.20;73.80;;;;;;5052983;28;20037;-80
2023/09/05 03:04:07;;;;;;;3.97;2.45;;;19.20;73.90;;;;;;5049884;28;20046;-80
2023/09/05 03:06:32;;;;;;;3.50;2.38;;;19.20;74.00;;;;;;5048456;28;20025;-80
2023/09/05 03:08:58;;;;;;;3.53;2.17;;;19.20;74.00;;;;;;5052372;28;20348;-80
2023/09/05 03:11:24;;;;;;;3.58;2.15;;;19.20;74.00;;;;;;5037643;28;20036;-80
2023/09/05 03:13:50;;;;;;;2.60;2.10;;;19.10;73.90;;;;;;5033318;28;20029;-80
2023/09/05 03:16:17;;;;;;;2.80;2.20;;;19.10;73.90;;;;;;5033084;28;20031;-80
2023/09/05 03:18:43;;;;;;;2.97;2.22;;;19.20;73.90;;;;;;5049447;28;20103;-80
2023/09/05 03:21:09;;;;;;;3.45;2.30;;;19.20;73.80;;;;;;5056869;28;20498;-80
2023/09/05 03:23:35;;;;;;;2.97;2.40;;;19.20;73.50;;;;;;5049605;28;20114;-80
2023/09/05 03:26:01;;;;;;;2.92;2.40;;;19.20;73.30;;;;;;5032245;28;20033;-81
2023/09/05 03:28:38;;;;;;;3.15;2.10;;;19.20;73.20;;;;;;5048037;28;20040;-81
2023/09/05 03:31:04;;;;;;;2.50;2.22;;;19.20;73.00;;;;;;5040552;28;20458;-80
2023/09/05 03:33:29;;;;;;;5.28;2.38;;;19.30;73.00;;;;;;5047761;28;20031;-80
2023/09/05 03:35:55;;;;;;;3.65;2.47;;;19.30;72.70;;;;;;5048144;28;20107;-81
2023/09/05 03:38:20;;;;;;;3.53;2.30;;;19.30;72.50;;;;;;5046175;28;20067;-81
2023/09/05 03:40:46;;;;;;;2.92;2.00;;;19.30;72.40;;;;;;5047130;28;20120;-81
2023/09/05 03:43:11;;;;;;;4.97;2.30;;;19.30;72.20;;;;;;5046123;28;20411;-81
2023/09/05 03:45:37;;;;;;;3.25;2.28;;;19.40;72.00;;;;;;5048378;28;20510;-81
2023/09/05 03:48:04;;;;;;;3.00;2.40;;;19.40;71.80;;;;;;5047972;28;20037;-80
2023/09/05 03:50:29;;;;;;;2.97;2.40;;;19.40;71.50;;;;;;5053650;28;20021;-81
2023/09/05 03:52:55;;;;;;;4.25;2.30;;;19.40;71.40;;;;;;5032916;28;20407;-80
2023/09/05 03:55:20;;;;;;;3.05;2.17;;;19.40;71.30;;;;;;5048860;28;20415;-81
2023/09/05 03:57:46;;;;;;;3.85;2.35;;;19.50;71.40;;;;;;5033334;28;20025;-81
2023/09/05 04:00:12;;;;;;;2.70;2.40;;;19.50;71.30;;;;;;5036123;28;20091;-81
2023/09/05 04:02:37;;;;;;;3.38;2.17;;;19.40;71.30;;;;;;5033223;28;20027;-81
2023/09/05 04:05:03;;;;;;;3.95;2.25;;;19.40;71.20;;;;;;5048739;28;20044;-80
2023/09/05 04:07:30;;;;;;;4.20;2.80;;;19.50;71.10;;;;;;5048045;28;20033;-81
2023/09/05 04:09:55;;;;;;;2.63;2.10;;;19.50;71.10;;;;;;5048658;28;20028;-80
2023/09/05 04:12:21;;;;;;;3.47;2.60;;;19.50;71.00;;;;;;5048081;28;20025;-81
2023/09/05 04:14:48;;;;;;;4.90;2.88;;;19.50;70.80;;;;;;5048853;28;20480;-81
2023/09/05 04:17:14;;;;;;;3.63;2.22;;;19.50;70.80;;;;;;5035388;28;20029;-80
2023/09/05 04:19:40;;;;;;;3.60;2.35;;;19.50;70.70;;;;;;5028350;28;20691;-80
2023/09/05 04:22:05;;;;;;;3.42;2.50;;;19.50;70.60;;;;;;5048069;28;20108;-80
2023/09/05 04:24:31;;;;;;;3.50;2.58;;;19.50;70.40;;;;;;5031938;28;20511;-80
2023/09/05 04:26:58;;;;;;;3.15;2.60;;;19.50;70.20;;;;;;5032902;28;20036;-80
2023/09/05 04:29:24;;;;;;;4.22;2.50;;;19.50;70.10;;;;;;5034054;28;20039;-80
2023/09/05 04:31:49;;;;;;;3.30;2.58;;;19.60;70.10;;;;;;5051182;28;20025;-80
2023/09/05 04:34:16;;;;;;;4.75;3.10;;;19.50;70.70;;;;;;5032299;28;20036;-80
2023/09/05 04:36:41;;;;;;;3.35;2.50;;;19.50;70.10;;;;;;5050441;28;20036;-80
2023/09/05 04:39:08;;;;;;;3.22;2.42;;;19.50;70.20;;;;;;5051983;28;20029;-80
2023/09/05 04:41:33;;;;;;;3.80;2.45;;;19.50;70.30;;;;;;5052343;28;20029;-80
2023/09/05 04:43:59;;;;;;;3.65;2.50;;;19.50;70.40;;;;;;5052699;28;20025;-81
2023/09/05 04:46:26;;;;;;;4.15;2.33;;;19.40;70.40;;;;;;5050389;28;20034;-80
2023/09/05 04:48:53;;;;;;;3.80;2.90;;;19.40;70.60;;;;;;5050841;28;20024;-80
2023/09/05 04:51:18;;;;;;;3.60;2.72;;;19.40;70.80;;;;;;5031757;28;20036;-79
2023/09/05 04:53:44;;;;;;;4.05;3.10;;;19.30;70.80;;;;;;5037215;28;20032;-80
2023/09/05 04:56:10;;;;;;;3.00;2.60;;;19.30;70.90;;;;;;5056064;28;20499;-80
2023/09/05 04:58:35;;;;;;;4.45;2.83;;;19.30;71.00;;;;;;5049890;28;20500;-80
2023/09/05 05:01:04;;;;;;;4.05;2.70;;;19.20;71.10;;;;;;5045393;28;20047;-80
2023/09/05 05:03:31;;;;;;;7.13;2.72;;;19.20;71.20;;;;;;5044785;28;20021;-80
2023/09/05 05:05:57;;;;;;;5.13;2.70;;;19.30;71.10;;;;;;5046630;28;20087;-83
2023/09/05 05:08:22;;;;;;;4.38;2.80;;;19.30;71.10;;;;;;5049147;28;20025;-83
2023/09/05 05:10:48;;;;;;;4.57;2.80;;;19.20;71.20;;;;;;5050011;28;20052;-82
2023/09/05 05:13:13;;;;;;;4.18;2.75;;;19.20;71.30;;;;;;5040698;28;20021;-82
2023/09/05 05:15:39;;;;;;;5.15;2.95;;;19.20;71.10;;;;;;5049266;28;20387;-82
2023/09/05 05:18:05;;;;;;;4.18;2.50;;;19.20;70.90;;;;;;5052259;28;20075;-82
2023/09/05 05:20:31;;;;;;;5.60;3.05;;;19.20;71.00;;;;;;5045994;28;20060;-82
2023/09/05 05:22:57;;;;;;;3.05;2.72;;;19.20;71.00;;;;;;5027894;28;20060;-82
2023/09/05 05:25:22;;;;;;;3.67;2.80;;;19.30;71.10;;;;;;5056576;28;20048;-82
2023/09/05 05:27:48;;;;;;;3.88;2.75;;;19.30;71.10;;;;;;5030055;28;20056;-82
2023/09/05 05:30:13;;;;;;;3.53;2.55;;;19.30;71.00;;;;;;5047234;28;20021;-82
2023/09/05 05:32:39;;;;;;;3.70;2.20;;;19.60;70.80;;;;;;5046598;28;20827;-82
2023/09/05 05:35:06;;;;;;;5.78;2.72;;;19.70;70.00;;;;;;5029207;28;20039;-82
2023/09/05 05:37:32;;;;;;;3.00;2.60;;;19.70;69.70;;;;;;5051320;28;20087;-82
2023/09/05 05:39:58;;;;;;;3.88;2.58;;;19.70;69.80;;;;;;5032597;28;20037;-82
2023/09/05 05:42:23;;;;;;;3.42;2.63;;;19.60;69.80;;;;;;5049438;28;20032;-82
2023/09/05 05:44:49;;;;;;;3.17;2.40;;;19.60;70.00;;;;;;5050704;28;20017;-82
2023/09/05 05:47:14;;;;;;;5.53;2.60;;;19.60;70.00;;;;;;5048071;28;20111;-82
2023/09/05 05:49:40;;;;;;;4.43;2.70;;;19.60;70.00;;;;;;5028280;28;20036;-81
2023/09/05 05:52:06;;;;;;;3.88;2.70;;;19.60;70.10;;;;;;5050004;28;20025;-81
2023/09/05 05:54:31;;;;;;;4.10;2.28;;;19.60;69.90;;;;;;5030306;28;20032;-81
2023/09/05 05:56:57;;;;;;;3.33;2.33;;;19.80;69.90;;;;;;5034158;28;20036;-82
2023/09/05 05:59:25;;;;;;;4.57;2.80;;;20.60;69.30;;;;;;5049063;28;20024;-82
2023/09/05 06:01:52;;;;;;;3.85;2.60;;;22.00;66.10;;;;;;5054169;28;20032;-82
2023/09/05 06:04:18;;;;;;;3.95;2.17;;;23.10;63.20;;;;;;5047999;28;20732;-82
2023/09/05 06:06:45;;;;;;;6.05;2.60;;;24.10;60.20;;;;;;5053451;28;20552;-82
2023/09/05 06:09:11;;;;;;;5.38;2.40;;;24.90;58.20;;;;;;5038217;28;20025;-82
2023/09/05 06:11:37;;;;;;;2.53;2.13;;;25.50;56.60;;;;;;5053122;28;20467;-82
2023/09/05 06:14:02;;;;;;;4.68;2.30;;;26.10;55.60;;;;;;5049819;28;20560;-82
2023/09/05 06:16:28;;;;;;;2.60;1.95;;;26.70;54.10;;;;;;5057628;28;20029;-82
2023/09/05 06:18:54;;;;;;;4.60;2.30;;;27.20;53.10;;;;;;5050676;28;20025;-82
2023/09/05 06:21:19;;;;;;;2.70;2.10;;;27.60;51.70;;;;;;5048575;28;20029;-82
2023/09/05 06:23:45;;;;;;;2.72;2.13;;;27.60;51.20;;;;;;5049085;28;20035;-84
2023/09/05 06:26:10;;;;;;;3.80;2.08;;;28.00;50.40;;;;;;5055690;28;20024;-81
2023/09/05 06:28:36;;;;;;;3.53;2.33;;;28.20;49.60;;;;;;5052061;28;20036;-82
2023/09/05 06:31:04;;;;;;;3.55;2.13;;;28.30;49.20;;;;;;5049605;28;20053;-82
2023/09/05 06:33:29;;;;;;;3.20;2.03;;;28.60;49.00;;;;;;5066001;28;20059;-82
2023/09/05 06:35:55;;;;;;;2.05;1.80;;;28.90;48.70;;;;;;5055687;28;20048;-82
2023/09/05 06:38:22;;;;;;;3.10;1.90;;;29.40;48.20;;;;;;5046267;28;20032;-81
2023/09/05 06:40:47;;;;;;;2.97;1.80;;;29.60;47.60;;;;;;5031518;28;20170;-82
2023/09/05 06:43:15;;;;;;;3.47;1.92;;;30.20;47.30;;;;;;5062859;28;20041;-82
2023/09/05 06:45:40;;;;;;;2.53;2.03;;;30.20;46.20;;;;;;5055025;28;20032;-90
2023/09/05 06:48:06;;;;;;;2.80;1.98;;;30.00;45.60;;;;;;5030524;28;20029;-82
2023/09/05 06:50:32;;;;;;;2.42;1.67;;;29.90;45.90;;;;;;5050181;28;20052;-82
2023/09/05 06:52:58;;;;;;;2.35;2.00;;;30.60;46.30;;;;;;5043314;28;20575;-81
2023/09/05 06:55:24;;;;;;;3.20;1.98;;;30.80;44.40;;;;;;5048104;28;20414;-81
2023/09/05 06:57:49;;;;;;;2.67;1.80;;;30.80;44.60;;;;;;5040103;28;20112;-81
2023/09/05 07:00:15;;;;;;;2.67;1.70;;;31.20;44.30;;;;;;5047457;28;20021;-81
2023/09/05 07:02:40;;;;;;;5.28;1.90;;;31.60;43.90;;;;;;5044137;28;20029;-82
2023/09/05 07:05:06;;;;;;;4.78;1.80;;;31.80;43.30;;;;;;5037196;28;20025;-81
2023/09/05 07:07:32;;;;;;;2.85;1.92;;;31.90;42.90;;;;;;5029033;28;20029;-81
2023/09/05 07:09:58;;;;;;;2.58;1.70;;;31.90;41.80;;;;;;5050249;28;20829;-82
2023/09/05 07:12:24;;;;;;;5.10;1.85;;;31.70;42.50;;;;;;5046472;28;20039;-82
2023/09/05 07:14:49;;;;;;;2.38;1.77;;;31.80;42.30;;;;;;5046047;28;20028;-80
2023/09/05 07:17:15;;;;;;;3.45;1.90;;;32.10;42.20;;;;;;5043476;28;20064;-82
2023/09/05 07:19:40;;;;;;;2.83;2.10;;;31.90;41.90;;;;;;5055717;28;20125;-81
2023/09/05 07:22:07;;;;;;;4.15;1.70;;;31.50;41.60;;;;;;5045579;28;20036;-81
2023/09/05 07:24:33;;;;;;;2.97;1.70;;;31.60;42.40;;;;;;5030609;28;20058;-81
2023/09/05 07:26:58;;;;;;;2.63;1.80;;;31.60;42.60;;;;;;5056084;28;20460;-81
2023/09/05 07:29:26;;;;;;;3.03;1.95;;;31.80;42.50;;;;;;5049393;28;20506;-79
2023/09/05 07:31:51;;;;;;;3.08;1.90;;;32.10;42.10;;;;;;5050879;28;20503;-79
2023/09/05 07:34:17;;;;;;;4.43;1.92;;;31.70;42.10;;;;;;5047370;28;20028;-79
2023/09/05 07:36:43;;;;;;;3.70;2.17;;;31.60;42.30;;;;;;5052635;28;20398;-79
2023/09/05 07:39:10;;;;;;;2.95;1.80;;;31.90;42.30;;;;;;5046580;28;20028;-79
2023/09/05 07:41:36;;;;;;;2.53;2.03;;;31.90;42.60;;;;;;5029870;28;20446;-81
2023/09/05 07:44:02;;;;;;;3.15;2.10;;;32.10;42.00;;;;;;5047616;28;20391;-81
2023/09/05 07:46:28;;;;;;;2.83;2.00;;;31.90;42.40;;;;;;5049868;28;20028;-81
2023/09/05 07:48:54;;;;;;;3.70;2.20;;;32.40;42.40;;;;;;5049032;28;20031;-81
2023/09/05 07:51:22;;;;;;;4.20;2.30;;;32.60;41.90;;;;;;5049462;28;20033;-81
2023/09/05 07:53:50;;;;;;;2.65;2.00;;;32.50;41.90;;;;;;5031757;28;20112;-81
2023/09/05 07:56:15;;;;;;;1.95;1.70;;;33.10;42.00;;;;;;5031827;28;20404;-82
2023/09/05 07:58:41;;;;;;;3.55;1.85;;;33.50;41.50;;;;;;5048722;28;20055;-81
2023/09/05 08:01:09;;;;;;;3.55;1.90;;;33.60;41.10;;;;;;5051309;28;20399;-83
2023/09/05 08:03:36;;;;;;;4.40;1.88;;;32.50;41.50;;;;;;5052276;28;20021;-81
2023/09/05 08:06:04;;;;;;;2.78;1.88;;;31.80;42.50;;;;;;5052356;28;20439;-81
2023/09/05 08:08:30;;;;;;;2.55;2.05;;;31.20;43.30;;;;;;5046998;28;20045;-82
2023/09/05 08:10:56;;;;;;;3.08;1.90;;;30.90;43.90;;;;;;5032726;28;20075;-81
2023/09/05 08:13:22;;;;;;;3.70;2.10;;;30.50;44.40;;;;;;5047626;28;20060;-79
2023/09/05 08:15:47;;;;;;;4.75;2.00;;;30.10;44.80;;;;;;5048547;28;20025;-80
2023/09/05 08:18:13;;;;;;;2.65;2.00;;;29.70;45.20;;;;;;5051226;28;20108;-81
2023/09/05 08:20:42;;;;;;;3.45;2.20;;;29.40;45.90;;;;;;5056771;28;20072;-79
2023/09/05 08:23:08;;;;;;;3.80;1.92;;;28.70;46.50;;;;;;5051331;28;20036;-79
2023/09/05 08:25:34;;;;;;;2.40;2.05;;;27.80;48.20;;;;;;5055455;28;20074;-79
2023/09/05 08:28:00;;;;;;;4.55;2.03;;;27.20;49.50;;;;;;5052194;28;20044;-79
2023/09/05 08:30:27;;;;;;;3.75;2.30;;;26.80;50.60;;;;;;5036216;28;20037;-80
2023/09/05 08:32:57;;;;;;;3.25;1.90;;;26.50;51.10;;;;;;5045742;28;20036;-80
2023/09/05 08:35:23;;;;;;;4.43;2.00;;;26.30;51.70;;;;;;5051064;28;20036;-78
2023/09/05 08:37:49;;;;;;;3.92;2.20;;;26.10;51.80;;;;;;5050482;28;20047;-79
2023/09/05 08:40:15;;;;;;;4.57;2.20;;;25.90;52.10;;;;;;5051231;28;20029;-79
2023/09/05 08:42:42;;;;;;;2.95;2.13;;;25.80;52.50;;;;;;5042871;28;20112;-79
2023/09/05 08:45:11;;;;;;;6.20;2.40;;;25.70;53.80;;;;;;5055350;28;20079;-79
2023/09/05 08:47:38;;;;;;;4.53;2.13;;;25.70;53.10;;;;;;5049724;28;20029;-79
2023/09/05 08:50:04;;;;;;;4.65;2.30;;;25.60;53.40;;;;;;5048650;28;20029;-79
2023/09/05 08:52:32;;;;;;;3.47;2.05;;;25.50;53.70;;;;;;5048635;28;20021;-81
2023/09/05 08:54:59;;;;;;;4.50;2.10;;;25.50;54.00;;;;;;5049540;28;20439;-81
2023/09/05 08:57:26;;;;;;;5.05;2.13;;;25.50;54.20;;;;;;5049715;28;20021;-81
2023/09/05 08:59:55;;;;;;;2.72;2.10;;;25.50;54.40;;;;;;5048092;28;20407;-81
2023/09/05 09:02:21;;;;;;;3.80;2.30;;;25.50;54.40;;;;;;5049547;28;20032;-81
2023/09/05 09:04:50;;;;;;;4.57;2.42;;;25.40;55.00;;;;;;5049178;28;20033;-81
2023/09/05 09:07:16;;;;;;;3.35;2.08;;;25.40;54.40;;;;;;5048462;28;20143;-81
2023/09/05 09:09:42;;;;;;;1.98;1.73;;;25.40;54.70;;;;;;5030343;28;20040;-82
2023/09/05 09:12:09;;;;;;;3.25;2.10;;;25.40;54.70;;;;;;5049650;28;20313;-79
2023/09/05 09:14:35;;;;;;;3.17;1.90;;;25.50;55.00;;;;;;5032439;28;20025;-80
2023/09/05 09:17:05;;;;;;;3.53;2.17;;;25.50;55.00;;;;;;5031549;28;20094;-79
2023/09/05 09:19:31;;;;;;;4.45;2.03;;;25.60;54.90;;;;;;5049949;28;20092;-79
2023/09/05 09:22:02;;;;;;;2.70;2.00;;;25.60;55.00;;;;;;5048574;28;20392;-79
2023/09/05 09:24:35;;;;;;;4.50;2.25;;;25.70;55.00;;;;;;5044284;28;20563;-79
2023/09/05 09:27:02;;;;;;;3.30;2.00;;;25.70;55.20;;;;;;5050593;28;20025;-79
2023/09/05 09:29:29;;;;;;;3.72;2.20;;;25.80;55.20;;;;;;5048517;28;20022;-80
2023/09/05 09:32:05;;;;;;;3.15;2.33;;;25.80;55.30;;;;;;5047817;28;20053;-80
2023/09/05 09:34:32;;;;;;;3.92;2.42;;;25.90;54.90;;;;;;5048102;28;20449;-80
2023/09/05 09:36:58;;;;;;;3.53;2.25;;;25.90;54.80;;;;;;5030846;28;20064;-81
2023/09/05 09:39:25;;;;;;;2.97;2.05;;;25.90;54.90;;;;;;5050190;28;20021;-81
2023/09/05 09:41:51;;;;;;;2.33;1.85;;;25.90;54.80;;;;;;5038565;28;20565;-81
2023/09/05 09:44:33;;;;;;;2.83;1.95;;;26.00;55.20;;;;;;5051448;28;20017;-81
2023/09/05 09:47:01;;;;;;;2.70;2.03;;;26.10;55.30;;;;;;5050741;28;20040;-80
2023/09/05 09:49:28;;;;;;;3.13;1.98;;;26.10;55.10;;;;;;5047429;28;20561;-80
2023/09/05 09:51:56;;;;;;;3.35;2.08;;;26.20;55.40;;;;;;5044090;28;20487;-82
2023/09/05 09:54:31;;;;;;;3.55;1.92;;;26.30;55.40;;;;;;5035026;28;20035;-81
2023/09/05 09:57:05;;;;;;;4.07;2.25;;;26.50;55.00;;;;;;5030520;28;20033;-81
2023/09/05 09:59:35;;;;;;;3.78;2.15;;;26.50;54.70;;;;;;5039126;28;20021;-80
2023/09/05 10:02:08;;;;;;;2.60;1.90;;;26.60;54.70;;;;;;5049331;28;20501;-79
2023/09/05 10:04:38;;;;;;;3.38;2.30;;;26.70;54.40;;;;;;5044436;28;20024;-79
2023/09/05 10:07:06;;;;;;;2.67;1.88;;;26.70;54.20;;;;;;5042383;28;20172;-79
2023/09/05 10:09:36;;;;;;;2.97;2.10;;;26.80;54.40;;;;;;5041147;28;20036;-79
2023/09/05 10:12:04;;;;;;;4.05;2.00;;;26.90;54.20;;;;;;5031614;28;20036;-79
2023/09/05 10:14:31;;;;;;;4.53;2.03;;;26.90;54.00;;;;;;5034257;28;20376;-79
2023/09/05 10:16:58;;;;;;;2.42;1.98;;;27.00;53.90;;;;;;5062540;28;20021;-79
2023/09/05 10:19:29;;;;;;;4.57;2.10;;;27.00;53.60;;;;;;5053636;28;20489;-79
2023/09/05 10:21:58;;;;;;;2.90;1.70;;;27.10;53.70;;;;;;5035890;28;20041;-81
2023/09/05 10:24:25;;;;;;;3.80;1.83;;;27.30;53.90;;;;;;5054344;28;20107;-81
2023/09/05 10:26:52;;;;;;;3.20;1.70;;;27.40;53.60;;;;;;5045470;28;20040;-81
2023/09/05 10:29:42;;;;;;;3.75;2.00;;;27.40;53.20;;;;;;5050917;28;20021;-81
2023/09/05 10:32:10;;;;;;;3.17;1.70;;;27.50;53.40;;;;;;5029802;28;20029;-81
2023/09/05 10:34:47;;;;;;;2.85;1.80;;;27.60;53.10;;;;;;5053780;28;20311;-81
2023/09/05 10:37:21;;;;;;;2.97;1.85;;;27.60;51.80;;;;;;5047327;28;20287;-81
2023/09/05 10:39:54;;;;;;;3.55;1.80;;;27.60;52.00;;;;;;5048008;28;20068;-81
2023/09/05 10:42:27;;;;;;;2.67;1.73;;;27.70;51.80;;;;;;5049869;28;20025;-81
2023/09/05 10:44:53;;;;;;;3.63;1.60;;;27.70;51.90;;;;;;5044883;28;20032;-82
2023/09/05 10:47:35;;;;;;;4.22;1.67;;;27.80;52.10;;;;;;5029222;28;20029;-82
2023/09/05 10:50:06;;;;;;;3.10;1.70;;;28.00;51.70;;;;;;5049009;28;20108;-82
2023/09/05 10:52:32;;;;;;;1.73;1.45;;;28.00;51.30;;;;;;5049281;28;20342;-84
2023/09/05 10:54:59;;;;;;;2.03;1.42;;;28.10;51.30;;;;;;5030949;28;20064;-82
2023/09/05 10:57:37;;;;;;;2.80;1.52;;;28.20;51.40;;;;;;5030162;28;20225;-80
2023/09/05 11:00:15;;;;;;;2.05;1.65;;;28.30;51.00;;;;;;5069964;28;20560;-81
2023/09/05 11:02:46;;;;;;;2.38;1.40;;;28.40;51.10;;;;;;5033493;28;20025;-80
2023/09/05 11:05:12;;;;;;;4.20;1.67;;;28.40;50.70;;;;;;5059229;28;20434;-81
2023/09/05 11:07:42;;;;;;;3.35;1.63;;;28.50;50.40;;;;;;5029014;28;20059;-81
2023/09/05 11:10:24;;;;;;;2.17;1.75;;;28.50;50.00;;;;;;5029403;28;20036;-82
2023/09/05 11:12:50;;;;;;;3.80;1.60;;;28.50;49.60;;;;;;5046805;28;20029;-81
2023/09/05 11:15:31;;;;;;;2.20;1.70;;;28.40;49.70;;;;;;5045423;28;20077;-81
2023/09/05 11:17:59;;;;;;;2.22;1.55;;;28.60;50.20;;;;;;5028471;28;20057;-81
2023/09/05 11:20:50;;;;;;;3.13;1.58;;;28.60;49.90;;;;;;5045300;28;20044;-81
2023/09/05 11:23:25;;;;;;;2.97;1.45;;;28.70;49.90;;;;;;5046619;28;20029;-81
2023/09/05 11:25:56;;;;;;;1.83;1.58;;;28.90;49.80;;;;;;5047030;28;20108;-81
2023/09/05 11:28:23;;;;;;;2.90;1.40;;;29.00;49.80;;;;;;5049563;28;20108;-81
2023/09/05 11:30:57;;;;;;;3.00;1.48;;;29.10;49.80;;;;;;5045837;28;20115;-83
2023/09/05 11:33:25;;;;;;;3.33;1.55;;;29.20;49.50;;;;;;5048825;28;20078;-82
2023/09/05 11:35:51;;;;;;;1.85;1.67;;;29.20;48.80;;;;;;5047218;28;20044;-81
2023/09/05 11:38:19;;;;;;;2.47;1.40;;;29.10;48.20;;;;;;5048081;28;20227;-82
2023/09/05 11:40:51;;;;;;;3.78;1.58;;;29.20;48.90;;;;;;5029477;28;20063;-82
2023/09/05 11:43:17;;;;;;;2.38;1.65;;;29.20;49.30;;;;;;5029274;28;20068;-81
2023/09/05 11:45:45;;;;;;;2.45;1.85;;;29.20;48.80;;;;;;5038630;28;20052;-82
2023/09/05 11:48:14;;;;;;;5.32;1.50;;;29.20;49.30;;;;;;5032490;28;20032;-81
2023/09/05 11:50:42;;;;;;;4.28;1.77;;;29.20;49.00;;;;;;5029991;28;20035;-81
2023/09/05 11:53:14;;;;;;;2.50;1.50;;;29.30;48.60;;;;;;5048027;28;20530;-81
2023/09/05 11:55:40;;;;;;;2.33;1.30;;;29.40;48.90;;;;;;5050110;28;20041;-81
2023/09/05 11:58:06;;;;;;;1.98;1.58;;;29.50;48.60;;;;;;5032882;28;20024;-83
2023/09/05 12:00:35;;;;;;;3.13;1.42;;;29.70;48.00;;;;;;5047969;28;20036;-82
2023/09/05 12:03:01;;;;;;;1.70;1.33;;;29.80;47.80;;;;;;5033957;28;20040;-82
2023/09/05 12:05:28;;;;;;;3.22;1.52;;;29.90;47.70;;;;;;5047479;28;20379;-83
2023/09/05 12:07:55;;;;;;;1.60;1.38;;;29.90;47.30;;;;;;5039433;28;20025;-83
2023/09/05 12:10:23;;;;;;;3.50;1.40;;;29.90;47.40;;;;;;5049557;28;20107;-84
2023/09/05 12:12:53;;;;;;;2.65;1.30;;;30.00;47.20;;;;;;5048663;28;20399;-82
2023/09/05 12:15:28;;;;;;;3.08;1.67;;;30.10;47.20;;;;;;5053068;28;20082;-84
2023/09/05 12:17:55;;;;;;;1.70;1.40;;;30.00;47.20;;;;;;5047499;28;20025;-84
2023/09/05 12:20:21;;;;;;;1.35;1.25;;;30.10;47.50;;;;;;5034535;28;20072;-83
2023/09/05 12:22:47;;;;;;;1.58;1.40;;;30.20;47.00;;;;;;5034320;28;20056;-83
2023/09/05 12:25:17;;;;;;;2.45;1.58;;;30.30;46.80;;;;;;5050057;28;20028;-83
2023/09/05 12:27:44;;;;;;;2.55;1.33;;;30.40;47.00;;;;;;5042392;28;20033;-83
2023/09/05 12:30:32;;;;;;;1.88;1.38;;;30.50;45.90;;;;;;5068172;28;20029;-81
2023/09/05 12:32:57;;;;;;;1.73;1.40;;;30.50;45.80;;;;;;5047226;28;20040;-80
2023/09/05 12:35:25;;;;;;;2.53;1.50;;;30.50;46.20;;;;;;5050453;28;20032;-81
2023/09/05 12:37:52;;;;;;;1.55;1.30;;;30.40;46.20;;;;;;5040915;28;20029;-81
2023/09/05 12:40:17;;;;;;;2.28;1.35;;;30.50;46.10;;;;;;5036644;28;20063;-81
2023/09/05 12:42:46;;;;;;;1.40;1.30;;;30.50;45.80;;;;;;5047977;28;20029;-82
2023/09/05 12:45:13;;;;;;;4.57;1.58;;;30.50;45.50;;;;;;5050740;28;20025;-81
2023/09/05 12:47:40;;;;;;;2.92;1.30;;;30.50;45.00;;;;;;5049231;28;20079;-81